createdAt,value
2019-04-05T00:03:18.835Z,16.73
2019-04-05T00:08:11.886Z,11.13
2019-04-05T00:13:04.957Z,21.70
2019-04-05T00:17:57.041Z,13.90
2019-04-05T00:22:49.685Z,11.37
2019-04-05T00:27:42.585Z,11.63
2019-04-05T00:32:35.169Z,11.67
2019-04-05T00:37:27.977Z,12.83
2019-04-05T00:42:20.530Z,15.30
2019-04-05T00:47:13.041Z,24.83
2019-04-05T00:52:05.725Z,18.70
2019-04-05T00:56:58.378Z,21.33
2019-04-05T01:01:51.226Z,12.63
2019-04-05T01:06:43.653Z,11.30
2019-04-05T01:11:36.437Z,16.23
2019-04-05T01:16:29.270Z,31.57
2019-04-05T01:21:25.070Z,14.77
2019-04-05T01:26:19.365Z,16.60
2019-04-05T01:31:11.773Z,20.93
2019-04-05T01:36:04.157Z,24.40
2019-04-05T01:40:58.047Z,12.27
2019-04-05T01:45:53.824Z,12.60
2019-04-05T01:50:44.681Z,22.83
2019-04-05T01:55:37.085Z,16.57
2019-04-05T02:00:29.415Z,16.30
2019-04-05T02:05:22.075Z,15.23
2019-04-05T02:10:15.079Z,13.67
2019-04-05T02:15:08.744Z,18.10
2019-04-05T02:20:01.441Z,23.30
2019-04-05T02:24:54.333Z,23.63
2019-04-05T02:29:47.022Z,19.67
2019-04-05T02:34:39.768Z,14.17
2019-04-05T02:39:32.227Z,11.83
2019-04-05T02:44:26.562Z,11.13
2019-04-05T02:49:20.638Z,10.87
2019-04-05T02:54:14.394Z,12.80
2019-04-05T02:59:07.909Z,12.20
2019-04-05T03:04:00.897Z,13.33
2019-04-05T03:08:54.309Z,13.07
2019-04-05T03:13:49.522Z,14.37
2019-04-05T03:18:44.763Z,13.77
2019-04-05T03:23:40.264Z,15.90
2019-04-05T03:28:36.202Z,17.03
2019-04-05T03:33:29.127Z,15.23
2019-04-05T03:38:21.740Z,14.87
2019-04-05T03:43:14.682Z,14.43
2019-04-05T03:48:08.522Z,13.83
2019-04-05T03:53:01.091Z,13.37
2019-04-05T03:57:53.584Z,12.93
2019-04-05T04:02:46.431Z,14.07
2019-04-05T04:07:39.426Z,13.57
2019-04-05T04:12:31.629Z,14.83
2019-04-05T04:17:24.768Z,16.53
2019-04-05T04:22:25.753Z,14.73
2019-04-05T04:27:18.702Z,14.87
2019-04-05T04:32:12.046Z,12.63
2019-04-05T04:37:05.155Z,12.07
2019-04-05T04:41:58.540Z,13.60
2019-04-05T04:46:51.392Z,13.57
2019-04-05T04:51:44.108Z,14.23
2019-04-05T04:56:37.553Z,15.83
2019-04-05T05:01:30.120Z,12.93
2019-04-05T05:06:22.797Z,11.83
2019-04-05T05:11:15.549Z,12.07
2019-04-05T05:16:08.022Z,12.10
2019-04-05T05:21:01.173Z,13.60
2019-04-05T05:25:53.653Z,12.13
2019-04-05T05:30:46.080Z,15.23
2019-04-05T05:35:38.673Z,14.47
2019-04-05T05:40:35.162Z,14.40
2019-04-05T05:45:25.892Z,13.77
2019-04-05T05:50:18.430Z,12.20
2019-04-05T05:55:13.150Z,14.47
2019-04-05T06:00:09.774Z,14.47
2019-04-05T06:05:02.054Z,15.17
2019-04-05T06:09:54.679Z,16.57
2019-04-05T06:14:47.712Z,15.87
2019-04-05T06:19:40.077Z,15.87
2019-04-05T06:24:32.740Z,16.27
2019-04-05T06:29:25.643Z,15.20
2019-04-05T06:34:17.789Z,14.83
2019-04-05T06:39:10.080Z,14.37
2019-04-05T06:44:02.911Z,16.10
2019-04-05T06:48:55.726Z,16.90
2019-04-05T06:53:48.393Z,18.80
2019-04-05T06:58:40.768Z,19.43
2019-04-05T07:03:33.483Z,18.40
2019-04-05T07:08:25.811Z,16.67
2019-04-05T07:13:18.303Z,17.23
2019-04-05T07:18:10.711Z,17.63
2019-04-05T07:23:03.235Z,17.23
2019-04-05T07:27:55.627Z,16.27
2019-04-05T07:32:47.871Z,18.20
2019-04-05T07:37:40.404Z,17.13
2019-04-05T07:42:32.721Z,17.83
2019-04-05T07:47:25.430Z,19.67
2019-04-05T07:52:18.148Z,20.73
2019-04-05T07:57:10.866Z,20.40
2019-04-05T08:02:03.261Z,20.63
2019-04-05T08:06:58.484Z,19.03
2019-04-05T08:11:50.783Z,24.03
2019-04-05T08:16:43.683Z,20.27
2019-04-05T08:21:36.376Z,21.27
2019-04-05T08:26:29.049Z,21.97
2019-04-05T08:31:21.596Z,19.17
2019-04-05T08:36:14.195Z,18.93
2019-04-05T08:41:06.584Z,18.27
2019-04-05T08:45:58.736Z,18.20
2019-04-05T08:50:51.205Z,18.03
2019-04-05T08:55:43.712Z,20.17
2019-04-05T09:00:36.438Z,19.20
2019-04-05T09:05:29.028Z,19.57
2019-04-05T09:10:21.727Z,20.30
2019-04-05T09:15:14.299Z,20.67
2019-04-05T09:20:07.243Z,20.77
2019-04-05T09:24:59.675Z,20.65
2019-04-05T09:29:52.393Z,22.50
2019-04-05T09:34:44.700Z,20.32
2019-04-05T09:39:37.043Z,21.02
2019-04-05T09:44:29.455Z,20.35
2019-04-05T09:49:21.871Z,21.10
2019-04-05T09:54:14.432Z,22.70
2019-04-05T09:59:08.916Z,20.08
2019-04-05T10:04:00.952Z,20.75
2019-04-05T10:08:53.331Z,19.95
2019-04-05T10:13:45.539Z,19.20
2019-04-05T10:18:38.191Z,20.40
2019-04-05T10:23:30.808Z,19.07
2019-04-05T10:28:23.092Z,16.20
2019-04-05T10:33:15.655Z,18.30
2019-04-05T10:38:08.144Z,19.05
2019-04-05T10:43:00.953Z,18.40
2019-04-05T10:47:53.580Z,19.15
2019-04-05T10:52:46.269Z,17.60
2019-04-05T10:57:38.748Z,17.55
2019-04-05T11:02:31.489Z,17.82
2019-04-05T11:07:24.068Z,17.35
2019-04-05T11:12:16.691Z,16.65
2019-04-05T11:17:09.227Z,16.15
2019-04-05T11:22:01.464Z,15.30
2019-04-05T11:26:54.121Z,15.28
2019-04-05T11:31:56.310Z,15.95
2019-04-05T11:36:40.986Z,17.50
2019-04-05T11:41:34.231Z,15.15
2019-04-05T11:46:27.780Z,15.00
2019-04-05T11:51:20.096Z,13.60
2019-04-05T11:56:14.808Z,13.95
2019-04-05T12:01:08.085Z,13.28
2019-04-05T12:06:00.694Z,12.85
2019-04-05T12:10:53.399Z,14.33
2019-04-05T12:15:45.892Z,14.05
2019-04-05T12:20:49.464Z,13.00
2019-04-05T12:25:33.762Z,13.72
2019-04-05T12:30:27.211Z,12.93
2019-04-05T12:35:21.614Z,14.13
2019-04-05T12:40:14.844Z,13.78
2019-04-05T12:45:07.976Z,13.18
2019-04-05T12:50:00.564Z,12.40
2019-04-05T12:54:54.939Z,11.95
2019-04-05T12:59:47.019Z,10.35
2019-04-05T13:04:39.436Z,11.12
2019-04-05T13:09:31.806Z,10.43
2019-04-05T13:14:26.090Z,9.10
2019-04-05T13:19:18.403Z,8.53
2019-04-05T13:24:11.107Z,8.68
2019-04-05T13:29:03.508Z,8.48
2019-04-05T13:33:56.312Z,7.85
2019-04-05T13:38:54.688Z,12.33
2019-04-05T13:43:43.505Z,7.92
2019-04-05T13:48:37.628Z,7.28
2019-04-05T13:53:30.054Z,7.95
2019-04-05T13:58:22.629Z,8.65
2019-04-05T14:03:15.214Z,8.30
2019-04-05T14:08:11.056Z,8.75
2019-04-05T14:13:02.069Z,7.95
2019-04-05T14:17:54.555Z,7.50
2019-04-05T14:22:48.634Z,8.03
2019-04-05T14:27:41.366Z,7.95
2019-04-05T14:32:34.224Z,8.35
2019-04-05T14:37:26.893Z,9.43
2019-04-05T14:42:19.706Z,8.85
2019-04-05T14:47:12.429Z,9.20
2019-04-05T14:52:04.913Z,10.03
2019-04-05T14:56:57.698Z,9.83
2019-04-05T15:01:51.597Z,10.38
2019-04-05T15:06:44.064Z,10.93
2019-04-05T15:11:36.635Z,10.63
2019-04-05T15:16:29.029Z,11.10
2019-04-05T15:21:21.351Z,11.45
2019-04-05T15:26:13.655Z,10.75
2019-04-05T15:31:06.432Z,11.20
2019-04-05T15:36:02.949Z,10.65
2019-04-05T15:40:53.263Z,11.43
2019-04-05T15:45:45.697Z,11.28
2019-04-05T15:50:38.429Z,12.07
2019-04-05T15:55:33.248Z,10.70
2019-04-05T16:00:44.625Z,10.88
2019-04-05T16:05:37.147Z,12.00
2019-04-05T16:10:29.687Z,11.53
2019-04-05T16:15:22.475Z,11.28
2019-04-05T16:20:16.886Z,11.08
2019-04-05T16:25:10.050Z,10.10
2019-04-05T16:30:02.484Z,10.85
2019-04-05T16:34:54.589Z,12.25
2019-04-05T16:39:47.341Z,13.78
2019-04-05T16:44:39.899Z,11.85
2019-04-05T16:49:32.305Z,12.75
2019-04-05T16:54:24.994Z,11.90
2019-04-05T16:59:17.579Z,12.88
2019-04-05T17:04:10.444Z,12.40
2019-04-05T17:09:03.094Z,11.67
2019-04-05T17:13:59.355Z,11.43
2019-04-05T17:18:49.678Z,11.17
2019-04-05T17:23:42.291Z,12.30
2019-04-05T17:28:34.990Z,12.43
2019-04-05T17:33:27.548Z,12.60
2019-04-05T17:38:20.499Z,11.88
2019-04-05T17:43:13.037Z,11.80
2019-04-05T17:48:05.794Z,12.13
2019-04-05T17:53:11.377Z,12.73
2019-04-05T17:57:53.118Z,12.07
2019-04-05T18:02:45.733Z,12.58
2019-04-05T18:07:38.185Z,11.85
2019-04-05T18:12:30.671Z,13.00
2019-04-05T18:17:22.930Z,12.93
2019-04-05T18:22:15.405Z,13.75
2019-04-05T18:27:08.034Z,15.65
2019-04-05T18:32:00.773Z,16.70
2019-04-05T18:36:53.557Z,17.30
2019-04-05T18:41:46.107Z,17.50
2019-04-05T18:46:38.678Z,18.37
2019-04-05T18:51:31.138Z,18.70
2019-04-05T18:56:23.505Z,18.70
2019-04-05T19:01:16.213Z,19.25
2019-04-05T19:06:08.970Z,19.90
2019-04-05T19:11:01.607Z,19.52
2019-04-05T19:15:54.173Z,20.72
2019-04-05T19:20:46.367Z,19.48
2019-04-05T19:25:40.233Z,20.52
2019-04-05T19:50:08.941Z,22.67
2019-04-05T19:55:01.582Z,22.50
2019-04-05T19:59:54.210Z,22.70
2019-04-05T20:04:46.694Z,24.77
2019-04-05T20:09:39.234Z,23.55
2019-04-05T20:14:31.509Z,25.27
2019-04-05T20:19:24.120Z,23.77
2019-04-05T20:24:16.805Z,26.15
2019-04-05T20:29:09.426Z,27.82
2019-04-05T20:34:04.164Z,26.37
2019-04-05T20:38:58.995Z,25.30
2019-04-05T20:43:51.765Z,25.60
2019-04-05T20:48:44.381Z,25.88
2019-04-05T20:53:36.657Z,24.00
2019-04-05T20:58:29.098Z,26.33
2019-04-05T21:03:21.753Z,25.25
2019-04-05T21:08:15.973Z,27.57
2019-04-05T21:13:08.650Z,26.43
2019-04-05T21:18:01.005Z,25.67
2019-04-05T21:22:53.482Z,26.37
2019-04-05T21:27:46.676Z,26.77
2019-04-05T21:32:39.298Z,26.73
2019-04-05T21:37:31.694Z,26.93
2019-04-05T21:42:24.586Z,28.20
2019-04-05T21:47:17.186Z,28.53
2019-04-05T21:52:09.990Z,28.07
2019-04-05T21:57:02.390Z,27.80
2019-04-05T22:01:55.461Z,27.80
2019-04-05T22:06:48.333Z,29.87
2019-04-05T22:11:40.712Z,29.40
2019-04-05T22:16:33.213Z,30.30
2019-04-05T22:21:25.984Z,30.73
2019-04-05T22:26:18.631Z,28.70
2019-04-05T22:31:11.612Z,30.37
2019-04-05T22:36:04.062Z,30.53
2019-04-05T22:40:56.406Z,102.97
2019-04-05T22:45:48.789Z,55.08
2019-04-05T22:50:41.222Z,42.37
2019-04-05T22:55:33.945Z,42.17
2019-04-05T23:00:26.268Z,46.83
2019-04-05T23:05:18.906Z,56.93
2019-04-05T23:10:12.212Z,47.47
2019-04-05T23:15:08.066Z,43.70
2019-04-05T23:20:00.801Z,35.70
2019-04-05T23:24:53.325Z,40.87
2019-04-05T23:29:45.956Z,47.97
2019-04-05T23:34:38.631Z,63.97
2019-04-05T23:39:31.068Z,59.73
2019-04-05T23:44:23.545Z,53.83
2019-04-05T23:49:15.884Z,60.47
2019-04-05T23:54:08.723Z,68.00
2019-04-05T23:59:01.173Z,56.93
